Birchdale, Minnesota
Current Conditions -  °F | °C
As of 3:53 AM on Tuesday 27 Jan 2015 (Local Time) from KBDE Reporting Station
Overcast Overcast  
Wind Chill: 23°   Ceiling: 500
Heat Index: 23°   Visibility: 10mi
Dew Point: 21°   Wind: 3mph
Humidity: 92%   Direction: 200°SSW
Pressure: 30.03"   Gusts: NA
Location:  48.63°N, 94.1°W
Report Text: KBDE 270953Z AUTO 20003KT 10SM OVC005 M05/M06 A3003 RMK AO2 SLP188 T10501061 TSNO $
Loading
Personal Weather Stations






























Interactive Weather Map New forecast layout! Learn more

10-Day Weather Forecast

Advertisements
Track Severe Weather on mobile